createdAt,value
2018-05-12T00:02:08.686Z,76.50
2018-05-12T00:04:36.122Z,76.60
2018-05-12T00:07:03.803Z,76.70
2018-05-12T00:09:31.233Z,76.80
2018-05-12T00:11:58.697Z,76.90
2018-05-12T00:14:26.147Z,77.10
2018-05-12T00:16:53.590Z,77.00
2018-05-12T00:19:21.019Z,77.10
2018-05-12T00:21:48.472Z,77.10
2018-05-12T00:24:15.893Z,77.20
2018-05-12T00:26:43.437Z,77.30
2018-05-12T00:29:10.807Z,77.50
2018-05-12T00:31:38.277Z,77.40
2018-05-12T00:34:05.725Z,77.40
2018-05-12T00:36:33.177Z,77.50
2018-05-12T00:39:00.640Z,77.70
2018-05-12T00:41:28.076Z,77.80
2018-05-12T00:43:55.534Z,77.90
2018-05-12T00:46:22.969Z,77.90
2018-05-12T00:48:50.417Z,77.90
2018-05-12T00:51:18.622Z,78.40
2018-05-12T00:53:46.077Z,78.20
2018-05-12T00:56:13.545Z,78.50
2018-05-12T00:58:41.008Z,78.30
2018-05-12T01:01:08.436Z,78.20
2018-05-12T01:03:35.901Z,77.80
2018-05-12T01:06:03.328Z,77.70
2018-05-12T01:08:31.546Z,78.70
2018-05-12T01:10:58.994Z,78.60
2018-05-12T01:13:26.456Z,78.70
2018-05-12T01:15:53.908Z,78.90
2018-05-12T01:18:21.393Z,78.80
2018-05-12T01:20:48.853Z,78.70
2018-05-12T01:23:16.302Z,78.90
2018-05-12T01:25:43.794Z,79.10
2018-05-12T01:28:11.984Z,79.50
2018-05-12T01:30:39.426Z,79.30
2018-05-12T01:33:06.882Z,79.40
2018-05-12T01:35:35.125Z,79.40
2018-05-12T01:38:02.583Z,79.30
2018-05-12T01:40:30.058Z,79.50
2018-05-12T01:42:57.502Z,79.50
2018-05-12T01:45:24.968Z,79.40
2018-05-12T01:47:52.426Z,79.60
2018-05-12T01:50:19.886Z,80.00
2018-05-12T01:52:47.324Z,79.90
2018-05-12T01:55:14.781Z,79.90
2018-05-12T01:57:42.221Z,80.00
2018-05-12T02:00:09.681Z,79.70
2018-05-12T02:02:37.137Z,79.70
2018-05-12T02:05:04.588Z,80.00
2018-05-12T02:07:32.053Z,80.10
2018-05-12T02:09:59.491Z,80.10
2018-05-12T02:12:26.940Z,80.10
2018-05-12T02:14:54.381Z,80.10
2018-05-12T02:17:22.595Z,80.40
2018-05-12T02:19:50.050Z,80.20
2018-05-12T02:22:17.461Z,80.20
2018-05-12T02:24:44.917Z,80.40
2018-05-12T02:27:12.357Z,80.40
2018-05-12T02:29:39.821Z,80.50
2018-05-12T02:32:07.286Z,80.60
2018-05-12T02:34:35.492Z,80.80
2018-05-12T02:37:02.917Z,80.70
2018-05-12T02:39:30.380Z,80.80
2018-05-12T02:41:58.610Z,81.10
2018-05-12T02:44:26.059Z,80.90
2018-05-12T02:46:53.494Z,81.20
2018-05-12T02:49:20.941Z,81.30
2018-05-12T02:51:48.392Z,81.30
2018-05-12T02:54:15.826Z,81.30
2018-05-12T02:56:43.285Z,81.30
2018-05-12T02:59:10.718Z,81.20
2018-05-12T03:01:38.189Z,81.40
2018-05-12T03:04:05.635Z,81.40
2018-05-12T03:06:33.101Z,81.40
2018-05-12T03:09:00.537Z,81.50
2018-05-12T03:11:27.997Z,81.80
2018-05-12T03:13:56.185Z,81.80
2018-05-12T03:16:23.624Z,81.90
2018-05-12T03:18:51.052Z,81.90
2018-05-12T03:21:18.521Z,82.00
2018-05-12T03:23:45.990Z,81.80
2018-05-12T03:26:13.462Z,82.00
2018-05-12T03:28:40.904Z,81.80
2018-05-12T03:31:08.348Z,81.80
2018-05-12T03:33:36.579Z,81.80
2018-05-12T03:36:04.784Z,82.10
2018-05-12T03:38:32.225Z,82.10
2018-05-12T03:40:59.678Z,82.10
2018-05-12T03:43:27.116Z,82.50
2018-05-12T03:45:54.606Z,82.50
2018-05-12T03:48:22.038Z,82.70
2018-05-12T03:50:49.493Z,82.60
2018-05-12T03:53:16.954Z,82.70
2018-05-12T03:55:45.140Z,82.70
2018-05-12T03:58:12.661Z,82.70
2018-05-12T04:00:40.041Z,82.70
2018-05-12T04:03:07.515Z,82.70
2018-05-12T04:05:46.797Z,82.70
2018-05-12T04:08:26.065Z,82.80
2018-05-12T04:11:05.422Z,82.80
2018-05-12T04:13:33.709Z,83.40
2018-05-12T04:16:01.161Z,83.10
2018-05-12T04:18:28.614Z,83.10
2018-05-12T04:20:56.133Z,83.20
2018-05-12T04:23:23.548Z,83.40
2018-05-12T04:25:50.985Z,83.40
2018-05-12T04:28:18.418Z,83.60
2018-05-12T04:30:45.872Z,83.70
2018-05-12T04:33:13.321Z,84.10
2018-05-12T04:35:41.540Z,84.20
2018-05-12T04:38:08.992Z,84.20
2018-05-12T04:40:36.445Z,84.30
2018-05-12T04:43:03.896Z,84.20
2018-05-12T04:45:31.357Z,84.30
2018-05-12T04:47:58.817Z,84.50
2018-05-12T04:50:26.289Z,84.60
2018-05-12T04:52:53.745Z,84.70
2018-05-12T04:55:21.261Z,85.00
2018-05-12T04:57:48.645Z,85.20
2018-05-12T05:00:16.115Z,84.90
2018-05-12T05:02:43.553Z,84.90
2018-05-12T05:05:11.033Z,85.00
2018-05-12T05:07:38.476Z,84.90
2018-05-12T05:10:05.922Z,84.90
2018-05-12T05:12:33.382Z,84.90
2018-05-12T05:15:00.841Z,84.90
2018-05-12T05:17:28.286Z,84.90
2018-05-12T05:19:55.764Z,85.20
2018-05-12T05:22:23.213Z,85.00
2018-05-12T05:24:50.655Z,85.10
2018-05-12T05:27:18.119Z,85.00
2018-05-12T05:29:45.577Z,85.10
2018-05-12T05:32:13.041Z,85.20
2018-05-12T05:34:40.489Z,85.10
2018-05-12T05:37:07.949Z,85.10
2018-05-12T05:39:35.401Z,85.00
2018-05-12T05:42:02.869Z,84.90
2018-05-12T05:44:30.309Z,84.90
2018-05-12T05:46:57.756Z,84.80
2018-05-12T05:49:25.242Z,84.70
2018-05-12T05:51:52.690Z,84.70
2018-05-12T05:54:20.144Z,84.70
2018-05-12T05:56:47.606Z,84.50
2018-05-12T05:59:15.056Z,84.50
2018-05-12T06:01:42.529Z,84.30
2018-05-12T06:04:09.994Z,84.20
2018-05-12T06:06:37.452Z,84.20
2018-05-12T06:09:05.838Z,84.30
2018-05-12T06:11:33.297Z,84.40
2018-05-12T06:14:00.769Z,84.40
2018-05-12T06:16:28.204Z,84.30
2018-05-12T06:18:55.656Z,84.50
2018-05-12T06:21:23.111Z,84.50
2018-05-12T06:23:50.650Z,84.60
2018-05-12T06:26:18.084Z,84.50
2018-05-12T06:28:46.381Z,84.30
2018-05-12T06:31:13.825Z,84.20
2018-05-12T06:33:42.113Z,83.90
2018-05-12T06:36:10.141Z,83.90
2018-05-12T06:38:37.585Z,83.80
2018-05-12T06:41:05.045Z,83.70
2018-05-12T06:43:32.484Z,83.40
2018-05-12T06:45:59.945Z,83.30
2018-05-12T06:48:27.394Z,83.20
2018-05-12T06:50:54.841Z,83.20
2018-05-12T06:53:22.293Z,82.90
2018-05-12T06:55:49.756Z,82.60
2018-05-12T06:58:17.214Z,82.40
2018-05-12T07:00:44.670Z,82.20
2018-05-12T07:03:12.121Z,82.10
2018-05-12T07:05:39.594Z,81.70
2018-05-12T07:08:07.043Z,81.40
2018-05-12T07:10:34.521Z,81.50
2018-05-12T07:13:01.965Z,81.20
2018-05-12T07:15:29.405Z,81.00
2018-05-12T07:17:56.868Z,81.10
2018-05-12T07:20:24.309Z,80.60
2018-05-12T07:22:52.513Z,80.40
2018-05-12T07:25:19.989Z,80.30
2018-05-12T07:27:47.449Z,80.10
2018-05-12T07:30:14.905Z,80.10
2018-05-12T07:32:42.349Z,80.00
2018-05-12T07:35:09.801Z,80.10
2018-05-12T07:37:37.241Z,80.30
2018-05-12T07:40:04.705Z,79.50
2018-05-12T07:42:32.145Z,79.90
2018-05-12T07:44:59.613Z,78.30
2018-05-12T07:47:27.065Z,77.60
2018-05-12T07:49:54.536Z,77.20
2018-05-12T07:52:21.973Z,77.60
2018-05-12T07:54:49.420Z,77.10
2018-05-12T07:57:17.617Z,75.10
2018-05-12T07:59:45.077Z,75.10
2018-05-12T08:02:12.534Z,75.20
2018-05-12T08:04:39.992Z,75.00
2018-05-12T08:07:07.461Z,74.10
2018-05-12T08:09:34.902Z,73.50
2018-05-12T08:12:02.357Z,72.80
2018-05-12T08:14:29.797Z,72.10
2018-05-12T08:16:57.267Z,72.10
2018-05-12T08:19:24.710Z,71.70
2018-05-12T08:21:52.151Z,70.70
2018-05-12T08:24:19.613Z,70.60
2018-05-12T08:26:47.886Z,69.30
2018-05-12T08:29:15.291Z,69.30
2018-05-12T08:31:42.737Z,67.80
2018-05-12T08:34:10.271Z,67.00
2018-05-12T08:36:37.642Z,67.20
2018-05-12T08:39:05.109Z,67.80
2018-05-12T08:41:32.543Z,66.80
2018-05-12T08:44:00.000Z,64.80
2018-05-12T08:46:27.447Z,64.90
2018-05-12T08:48:54.903Z,64.20
2018-05-12T08:51:23.099Z,64.40
2018-05-12T08:53:50.570Z,64.40
2018-05-12T08:56:18.019Z,64.40
2018-05-12T08:58:45.676Z,62.50
2018-05-12T09:01:13.128Z,62.20
2018-05-12T09:03:40.841Z,62.10
2018-05-12T09:06:09.089Z,59.10
2018-05-12T09:08:36.557Z,59.10
2018-05-12T09:11:04.015Z,58.50
2018-05-12T09:13:31.486Z,59.10
2018-05-12T09:15:59.016Z,59.00
2018-05-12T09:18:26.465Z,57.70
2018-05-12T09:20:54.036Z,56.80
2018-05-12T09:23:21.697Z,56.80
2018-05-12T09:25:49.145Z,56.30
2018-05-12T09:28:16.592Z,56.20
2018-05-12T09:30:44.273Z,55.90
2018-05-12T09:33:11.829Z,56.40
2018-05-12T09:35:39.275Z,55.60
2018-05-12T09:38:06.724Z,54.80
2018-05-12T09:40:34.181Z,55.50
2018-05-12T09:43:01.761Z,55.00
2018-05-12T09:45:29.421Z,55.70
2018-05-12T09:47:56.897Z,55.50
2018-05-12T09:50:24.357Z,55.80
2018-05-12T09:52:51.805Z,56.60
2018-05-12T09:55:19.269Z,56.00
2018-05-12T09:57:46.719Z,55.10
2018-05-12T10:00:16.661Z,54.70
2018-05-12T10:02:44.875Z,52.00
2018-05-12T10:05:12.438Z,51.90
2018-05-12T10:07:39.926Z,51.80
2018-05-12T10:10:07.456Z,51.70
2018-05-12T10:12:34.884Z,50.50
2018-05-12T10:15:03.121Z,51.10
2018-05-12T10:17:31.336Z,51.10
2018-05-12T10:19:58.814Z,51.00
2018-05-12T10:22:26.296Z,51.10
2018-05-12T10:24:53.741Z,50.90
2018-05-12T10:27:21.221Z,50.50
2018-05-12T10:29:48.680Z,50.80
2018-05-12T10:32:16.153Z,51.10
2018-05-12T10:34:43.593Z,51.10
2018-05-12T10:37:11.063Z,50.60
2018-05-12T10:39:38.508Z,49.80
2018-05-12T10:42:05.977Z,49.50
2018-05-12T10:44:33.436Z,49.20
2018-05-12T10:47:00.878Z,48.40
2018-05-12T10:49:28.357Z,48.40
2018-05-12T10:51:55.810Z,48.50
2018-05-12T10:54:23.281Z,48.20
2018-05-12T10:56:50.734Z,48.20
2018-05-12T10:59:18.167Z,48.10
2018-05-12T11:01:45.659Z,47.60
2018-05-12T11:04:13.865Z,47.20
2018-05-12T11:06:41.321Z,47.20
2018-05-12T11:09:08.779Z,46.90
2018-05-12T11:11:36.249Z,46.80
2018-05-12T11:14:03.680Z,47.20
2018-05-12T11:16:31.154Z,46.60
2018-05-12T11:18:58.593Z,46.10
2018-05-12T11:21:26.092Z,45.20
2018-05-12T11:23:53.559Z,44.00
2018-05-12T11:26:21.012Z,45.10
2018-05-12T11:28:48.526Z,45.50
2018-05-12T11:31:15.907Z,45.10
2018-05-12T11:33:43.373Z,45.00
2018-05-12T11:36:11.225Z,45.00
2018-05-12T11:38:39.684Z,45.10
2018-05-12T11:41:07.055Z,45.00
2018-05-12T11:43:34.543Z,45.70
2018-05-12T11:46:02.017Z,46.90
2018-05-12T11:48:29.486Z,46.50
2018-05-12T11:50:56.933Z,47.00
2018-05-12T11:53:24.375Z,46.40
2018-05-12T11:55:51.832Z,44.80
2018-05-12T11:58:19.335Z,44.60
2018-05-12T12:00:46.738Z,44.30
2018-05-12T12:03:14.171Z,43.60
2018-05-12T12:05:41.624Z,42.30
2018-05-12T12:08:09.073Z,41.90
2018-05-12T12:10:36.542Z,40.80
2018-05-12T12:13:03.980Z,41.00
2018-05-12T12:15:31.416Z,41.50
2018-05-12T12:17:58.873Z,41.80
2018-05-12T12:20:26.317Z,41.90
2018-05-12T12:22:53.777Z,42.30
2018-05-12T12:25:21.972Z,42.30
2018-05-12T12:27:49.429Z,41.90
2018-05-12T12:30:16.852Z,41.80
2018-05-12T12:32:44.326Z,42.60
2018-05-12T12:35:12.551Z,43.60
2018-05-12T12:37:40.011Z,43.60
2018-05-12T12:40:07.461Z,43.50
2018-05-12T12:42:34.922Z,43.70
2018-05-12T12:45:02.408Z,43.10
2018-05-12T12:47:29.866Z,43.00
2018-05-12T12:49:57.322Z,43.30
2018-05-12T12:52:24.764Z,43.10
2018-05-12T12:54:52.221Z,43.80
2018-05-12T12:57:19.677Z,44.50
2018-05-12T12:59:47.139Z,43.70
2018-05-12T13:02:14.584Z,43.80
2018-05-12T13:04:42.046Z,41.30
2018-05-12T13:07:09.496Z,40.00
2018-05-12T13:09:36.937Z,39.40
2018-05-12T13:12:04.420Z,38.70
2018-05-12T13:14:31.880Z,38.00
2018-05-12T13:16:59.333Z,36.80
2018-05-12T13:19:26.782Z,36.40
2018-05-12T13:21:54.249Z,36.50
2018-05-12T13:24:21.785Z,37.20
2018-05-12T13:26:49.750Z,37.60
2018-05-12T13:29:17.176Z,37.90
2018-05-12T13:31:45.408Z,37.50
2018-05-12T13:34:12.839Z,37.30
2018-05-12T13:36:40.298Z,36.20
2018-05-12T13:39:07.738Z,34.90
2018-05-12T13:41:35.196Z,34.10
2018-05-12T13:44:02.633Z,34.00
2018-05-12T13:46:30.881Z,34.20
2018-05-12T13:48:58.347Z,34.00
2018-05-12T13:51:25.785Z,34.10
2018-05-12T13:53:53.263Z,33.30
2018-05-12T13:56:21.202Z,33.00
2018-05-12T13:58:48.670Z,32.10
2018-05-12T14:01:16.117Z,31.40
2018-05-12T14:04:43.072Z,30.60
2018-05-12T14:07:10.512Z,30.50
2018-05-12T14:09:37.988Z,30.80
2018-05-12T14:12:05.425Z,30.00
2018-05-12T14:14:32.885Z,30.20
2018-05-12T14:17:00.358Z,31.10
2018-05-12T14:19:27.822Z,31.40
2018-05-12T14:21:55.304Z,31.40
2018-05-12T14:24:23.527Z,32.60
2018-05-12T14:26:51.005Z,32.50
2018-05-12T14:29:18.462Z,32.50
2018-05-12T14:31:45.899Z,32.10
2018-05-12T14:34:13.361Z,32.50
2018-05-12T14:36:40.840Z,34.00
2018-05-12T14:39:08.302Z,33.40
2018-05-12T14:41:35.748Z,33.10
2018-05-12T14:44:04.099Z,33.30
2018-05-12T14:46:31.535Z,33.30
2018-05-12T14:48:59.738Z,34.40
2018-05-12T14:51:27.215Z,34.40
2018-05-12T14:53:54.654Z,35.00
2018-05-12T14:56:22.133Z,35.90
2018-05-12T14:58:49.565Z,37.10
2018-05-12T15:01:17.024Z,38.10
2018-05-12T15:03:44.480Z,39.10
2018-05-12T15:06:12.119Z,39.50
2018-05-12T15:08:39.573Z,39.80
2018-05-12T15:11:07.036Z,39.80
2018-05-12T15:13:34.511Z,40.30
2018-05-12T15:16:01.982Z,41.10
2018-05-12T15:18:29.440Z,41.60
2018-05-12T15:20:56.889Z,42.00
2018-05-12T15:23:24.332Z,41.70
2018-05-12T15:25:51.799Z,42.20
2018-05-12T15:28:19.233Z,42.40
2018-05-12T15:30:46.717Z,42.50
2018-05-12T15:33:14.171Z,42.80
2018-05-12T15:35:41.630Z,43.30
2018-05-12T15:38:09.089Z,44.40
2018-05-12T15:40:36.569Z,44.40
2018-05-12T15:43:04.004Z,44.90
2018-05-12T15:45:32.256Z,45.00
2018-05-12T15:47:59.707Z,45.30
2018-05-12T15:50:27.137Z,46.10
2018-05-12T15:52:54.588Z,46.10
2018-05-12T15:55:22.049Z,45.90
2018-05-12T15:57:49.533Z,46.40
2018-05-12T16:00:17.750Z,46.90
2018-05-12T16:02:45.230Z,46.90
2018-05-12T16:05:12.697Z,47.50
2018-05-12T16:07:40.284Z,48.30
2018-05-12T16:10:07.676Z,49.50
2018-05-12T16:12:35.124Z,49.80
2018-05-12T16:15:02.579Z,50.50
2018-05-12T16:17:30.068Z,51.00
2018-05-12T16:19:57.524Z,51.80
2018-05-12T16:22:24.986Z,52.50
2018-05-12T16:24:52.439Z,52.80
2018-05-12T16:27:19.891Z,53.20
2018-05-12T16:29:47.333Z,54.10
2018-05-12T16:32:14.794Z,54.40
2018-05-12T16:34:42.269Z,55.10
2018-05-12T16:37:09.729Z,55.80
2018-05-12T16:39:37.184Z,55.70
2018-05-12T16:42:04.636Z,56.30
2018-05-12T16:44:33.125Z,56.20
2018-05-12T16:47:00.556Z,56.60
2018-05-12T16:49:28.037Z,56.80
2018-05-12T16:51:55.488Z,57.20
2018-05-12T16:54:22.924Z,57.30
2018-05-12T16:56:50.394Z,57.50
2018-05-12T16:59:17.849Z,57.50
2018-05-12T17:01:45.312Z,57.70
2018-05-12T17:04:13.509Z,58.30
2018-05-12T17:06:40.965Z,58.20
2018-05-12T17:09:08.417Z,58.60
2018-05-12T17:11:35.876Z,59.10
2018-05-12T17:14:03.312Z,59.40
2018-05-12T17:16:30.797Z,59.40
2018-05-12T17:18:59.013Z,60.00
2018-05-12T17:21:26.453Z,60.00
2018-05-12T17:23:53.905Z,60.30
2018-05-12T17:26:21.381Z,60.30
2018-05-12T17:28:48.840Z,61.10
2018-05-12T17:31:16.277Z,61.40
2018-05-12T17:33:43.720Z,61.30
2018-05-12T17:36:12.657Z,61.70
2018-05-12T17:38:40.150Z,61.70
2018-05-12T17:41:07.608Z,62.10
2018-05-12T17:43:35.140Z,61.90
2018-05-12T17:46:02.600Z,61.80
2018-05-12T17:48:30.047Z,61.90
2018-05-12T17:50:57.708Z,62.30
2018-05-12T17:53:25.209Z,62.70
2018-05-12T17:55:52.656Z,62.60
2018-05-12T17:58:20.088Z,62.80
2018-05-12T18:00:47.658Z,63.10
2018-05-12T18:03:15.137Z,63.30
2018-05-12T18:05:42.649Z,63.80
2018-05-12T18:08:10.112Z,64.20
2018-05-12T18:10:37.773Z,64.30
2018-05-12T18:13:05.217Z,64.70
2018-05-12T18:15:32.795Z,64.70
2018-05-12T18:18:00.294Z,64.50
2018-05-12T18:20:28.504Z,64.50
2018-05-12T18:22:56.168Z,64.40
2018-05-12T18:25:23.621Z,64.50
2018-05-12T18:27:51.085Z,65.40
2018-05-12T18:30:18.556Z,65.90
2018-05-12T18:32:46.005Z,65.60
2018-05-12T18:35:13.449Z,65.50
2018-05-12T18:37:40.948Z,65.70
2018-05-12T18:40:08.385Z,66.00
2018-05-12T18:42:35.849Z,66.10
2018-05-12T18:45:04.061Z,66.60
2018-05-12T18:47:32.287Z,66.60
2018-05-12T18:49:59.746Z,66.50
2018-05-12T18:52:27.197Z,67.10
2018-05-12T18:54:54.656Z,67.60
2018-05-12T18:57:22.105Z,68.00
2018-05-12T18:59:49.570Z,68.20
2018-05-12T19:02:17.017Z,68.40
2018-05-12T19:04:44.505Z,68.30
2018-05-12T19:07:11.957Z,68.50
2018-05-12T19:09:39.437Z,68.40
2018-05-12T19:12:07.665Z,69.40
2018-05-12T19:14:35.122Z,69.40
2018-05-12T19:17:02.623Z,69.60
2018-05-12T19:19:30.049Z,69.70
2018-05-12T19:21:57.490Z,69.60
2018-05-12T19:24:24.956Z,70.00
2018-05-12T19:26:52.407Z,70.20
2018-05-12T19:29:19.853Z,70.70
2018-05-12T19:31:47.324Z,70.90
2018-05-12T19:34:14.802Z,71.00
2018-05-12T19:36:42.253Z,71.10
2018-05-12T19:39:09.708Z,71.50
2018-05-12T19:41:37.166Z,71.60
2018-05-12T19:44:04.621Z,71.80
2018-05-12T19:46:32.070Z,71.90
2018-05-12T19:48:59.525Z,72.10
2018-05-12T19:51:26.994Z,72.20
2018-05-12T19:53:54.441Z,72.20
2018-05-12T19:56:21.913Z,72.20
2018-05-12T19:58:49.366Z,72.60
2018-05-12T20:01:16.844Z,72.70
2018-05-12T20:03:44.309Z,72.90
2018-05-12T20:06:12.240Z,72.90
2018-05-12T20:08:39.712Z,73.30
2018-05-12T20:11:07.177Z,73.50
2018-05-12T20:13:34.620Z,73.70
2018-05-12T20:16:02.123Z,73.90
2018-05-12T20:18:29.548Z,74.10
2018-05-12T20:20:57.040Z,74.40
2018-05-12T20:23:25.264Z,74.70
2018-05-12T20:25:52.724Z,74.70
2018-05-12T20:28:20.185Z,74.80
2018-05-12T20:30:47.631Z,74.90
2018-05-12T20:33:15.089Z,75.10
2018-05-12T20:35:42.556Z,75.30
2018-05-12T20:38:10.013Z,75.40
2018-05-12T20:40:37.461Z,75.70
2018-05-12T20:43:04.920Z,76.00
2018-05-12T20:45:32.360Z,76.00
2018-05-12T20:48:00.582Z,76.50
2018-05-12T20:50:28.789Z,76.80
2018-05-12T20:52:56.361Z,76.80
2018-05-12T20:55:23.845Z,77.00
2018-05-12T20:57:51.301Z,77.20
2018-05-12T21:00:18.759Z,77.50
2018-05-12T21:02:46.249Z,77.70
2018-05-12T21:05:13.711Z,77.90
2018-05-12T21:07:41.917Z,78.30
2018-05-12T21:10:09.381Z,78.30
2018-05-12T21:12:36.829Z,78.30
2018-05-12T21:15:04.293Z,78.40
2018-05-12T21:17:31.753Z,78.40
2018-05-12T21:19:59.199Z,78.70
2018-05-12T21:22:26.657Z,79.00
2018-05-12T21:24:54.135Z,79.10
2018-05-12T21:27:21.608Z,79.20
2018-05-12T21:29:49.049Z,79.40
2018-05-12T21:32:16.523Z,79.40
2018-05-12T21:34:43.987Z,79.60
2018-05-12T21:37:11.438Z,79.70
2018-05-12T21:39:40.818Z,79.90
2018-05-12T21:42:08.301Z,80.00
2018-05-12T21:44:36.760Z,80.30
2018-05-12T21:47:04.198Z,80.40
2018-05-12T21:49:31.681Z,80.60
2018-05-12T21:51:59.124Z,80.70
2018-05-12T21:54:26.570Z,80.90
2018-05-12T21:56:54.033Z,81.10
2018-05-12T21:59:21.485Z,81.20
2018-05-12T22:01:48.953Z,81.30
2018-05-12T22:04:16.415Z,81.40
2018-05-12T22:06:43.893Z,81.70
2018-05-12T22:09:11.337Z,81.80
2018-05-12T22:11:38.813Z,82.00
2018-05-12T22:14:06.262Z,82.10
2018-05-12T22:16:33.720Z,82.20
2018-05-12T22:19:01.164Z,82.40
2018-05-12T22:21:28.621Z,82.70
2018-05-12T22:23:56.069Z,82.90
2018-05-12T22:26:23.538Z,82.90
2018-05-12T22:28:50.987Z,83.00
2018-05-12T22:31:18.433Z,83.00
2018-05-12T22:33:45.903Z,83.00
2018-05-12T22:36:13.364Z,83.50
2018-05-12T22:38:40.924Z,83.60
2018-05-12T22:41:08.377Z,83.60
2018-05-12T22:43:35.821Z,83.60
2018-05-12T22:46:03.288Z,83.80
2018-05-12T22:48:30.821Z,84.20
2018-05-12T22:50:58.293Z,84.20
2018-05-12T22:53:25.746Z,84.40
2018-05-12T22:55:53.255Z,84.40
2018-05-12T22:58:20.852Z,84.60
2018-05-12T23:00:48.273Z,84.70
2018-05-12T23:03:15.733Z,84.80
2018-05-12T23:05:43.944Z,85.20
2018-05-12T23:08:11.420Z,85.20
2018-05-12T23:10:38.878Z,85.30
2018-05-12T23:13:06.353Z,85.30
2018-05-12T23:15:33.803Z,85.50
2018-05-12T23:18:01.251Z,85.50
2018-05-12T23:20:28.725Z,85.70
2018-05-12T23:22:56.213Z,85.80
2018-05-12T23:25:23.694Z,85.90
2018-05-12T23:27:51.155Z,86.10
2018-05-12T23:30:18.596Z,86.30
2018-05-12T23:32:46.065Z,86.40
2018-05-12T23:35:13.520Z,86.60
2018-05-12T23:37:40.978Z,86.60
2018-05-12T23:40:08.537Z,86.70
2018-05-12T23:42:35.976Z,86.90
2018-05-12T23:45:03.457Z,87.00
2018-05-12T23:47:30.919Z,87.10
2018-05-12T23:49:58.369Z,87.10
2018-05-12T23:52:25.829Z,87.30
2018-05-12T23:54:53.280Z,87.40
2018-05-12T23:57:20.728Z,87.40
2018-05-12T23:59:48.291Z,87.50
